sensor_id;sensor_type;location;lat;lon;timestamp;temperature;humidity
13412;DHT22;67102;51.666;6.880;2023-03-26T00:02:01;13.30;78.20
13412;DHT22;67102;51.666;6.880;2023-03-26T00:09:20;13.40;78.40
13412;DHT22;67102;51.666;6.880;2023-03-26T00:11:47;13.40;78.60
13412;DHT22;67102;51.666;6.880;2023-03-26T00:14:13;13.40;78.60
13412;DHT22;67102;51.666;6.880;2023-03-26T00:16:40;13.50;78.60
13412;DHT22;67102;51.666;6.880;2023-03-26T00:24:03;13.50;78.50
13412;DHT22;67102;51.666;6.880;2023-03-26T00:26:31;13.50;78.40
13412;DHT22;67102;51.666;6.880;2023-03-26T00:29:00;13.60;78.50
13412;DHT22;67102;51.666;6.880;2023-03-26T00:33:52;13.60;78.40
13412;DHT22;67102;51.666;6.880;2023-03-26T00:38:45;13.60;78.40
13412;DHT22;67102;51.666;6.880;2023-03-26T00:41:13;13.70;78.40
13412;DHT22;67102;51.666;6.880;2023-03-26T00:46:09;13.60;78.40
13412;DHT22;67102;51.666;6.880;2023-03-26T00:51:01;13.50;78.20
13412;DHT22;67102;51.666;6.880;2023-03-26T00:53:27;13.70;78.40
13412;DHT22;67102;51.666;6.880;2023-03-26T00:55:53;13.70;78.30
13412;DHT22;67102;51.666;6.880;2023-03-26T00:58:19;13.70;78.40
13412;DHT22;67102;51.666;6.880;2023-03-26T01:00:49;13.70;78.40
13412;DHT22;67102;51.666;6.880;2023-03-26T01:03:18;13.70;78.40
13412;DHT22;67102;51.666;6.880;2023-03-26T01:05:47;13.70;78.60
13412;DHT22;67102;51.666;6.880;2023-03-26T01:08:20;13.70;78.50
13412;DHT22;67102;51.666;6.880;2023-03-26T01:10:49;13.90;78.60
13412;DHT22;67102;51.666;6.880;2023-03-26T01:13:18;13.80;78.50
13412;DHT22;67102;51.666;6.880;2023-03-26T01:15:44;13.80;78.60
13412;DHT22;67102;51.666;6.880;2023-03-26T01:18:10;13.80;78.70
13412;DHT22;67102;51.666;6.880;2023-03-26T01:20:39;13.80;78.60
13412;DHT22;67102;51.666;6.880;2023-03-26T01:23:07;13.80;78.60
13412;DHT22;67102;51.666;6.880;2023-03-26T01:25:39;13.80;78.50
13412;DHT22;67102;51.666;6.880;2023-03-26T01:30:38;13.90;78.50
13412;DHT22;67102;51.666;6.880;2023-03-26T01:33:12;14.00;78.60
13412;DHT22;67102;51.666;6.880;2023-03-26T01:35:47;13.90;78.40
13412;DHT22;67102;51.666;6.880;2023-03-26T01:38:22;13.90;78.20
13412;DHT22;67102;51.666;6.880;2023-03-26T01:40:58;13.70;78.10
13412;DHT22;67102;51.666;6.880;2023-03-26T01:43:31;13.90;78.10
13412;DHT22;67102;51.666;6.880;2023-03-26T01:46:04;13.90;78.00
13412;DHT22;67102;51.666;6.880;2023-03-26T01:48:34;13.90;78.10
13412;DHT22;67102;51.666;6.880;2023-03-26T01:51:02;13.80;78.10
13412;DHT22;67102;51.666;6.880;2023-03-26T01:53:28;13.90;78.30
13412;DHT22;67102;51.666;6.880;2023-03-26T01:56:05;13.70;78.10
13412;DHT22;67102;51.666;6.880;2023-03-26T01:58:43;13.70;78.20
13412;DHT22;67102;51.666;6.880;2023-03-26T02:01:24;13.80;78.20
13412;DHT22;67102;51.666;6.880;2023-03-26T02:03:57;13.70;77.90
13412;DHT22;67102;51.666;6.880;2023-03-26T02:06:32;13.60;77.80
13412;DHT22;67102;51.666;6.880;2023-03-26T02:09:03;13.70;77.70
13412;DHT22;67102;51.666;6.880;2023-03-26T02:11:32;13.60;77.50
13412;DHT22;67102;51.666;6.880;2023-03-26T02:13:58;13.50;77.50
13412;DHT22;67102;51.666;6.880;2023-03-26T02:16:24;13.50;77.60
13412;DHT22;67102;51.666;6.880;2023-03-26T02:18:50;13.40;77.70
13412;DHT22;67102;51.666;6.880;2023-03-26T02:21:17;13.40;77.70
13412;DHT22;67102;51.666;6.880;2023-03-26T02:23:46;13.30;77.60
13412;DHT22;67102;51.666;6.880;2023-03-26T02:26:15;14.30;78.30
13412;DHT22;67102;51.666;6.880;2023-03-26T02:28:43;13.20;77.60
13412;DHT22;67102;51.666;6.880;2023-03-26T02:31:09;13.20;77.70
13412;DHT22;67102;51.666;6.880;2023-03-26T02:33:36;13.20;77.70
13412;DHT22;67102;51.666;6.880;2023-03-26T02:36:03;13.10;77.60
13412;DHT22;67102;51.666;6.880;2023-03-26T02:38:31;13.00;77.50
13412;DHT22;67102;51.666;6.880;2023-03-26T02:43:24;12.90;77.50
13412;DHT22;67102;51.666;6.880;2023-03-26T02:45:52;12.90;77.50
13412;DHT22;67102;51.666;6.880;2023-03-26T02:50:45;12.80;77.90
13412;DHT22;67102;51.666;6.880;2023-03-26T02:53:11;12.80;78.10
13412;DHT22;67102;51.666;6.880;2023-03-26T02:55:38;12.70;78.10
13412;DHT22;67102;51.666;6.880;2023-03-26T02:58:04;12.70;78.40
13412;DHT22;67102;51.666;6.880;2023-03-26T03:00:29;12.60;78.90
13412;DHT22;67102;51.666;6.880;2023-03-26T03:02:57;12.60;79.10
13412;DHT22;67102;51.666;6.880;2023-03-26T03:05:23;12.60;79.40
13412;DHT22;67102;51.666;6.880;2023-03-26T03:07:49;12.60;79.70
13412;DHT22;67102;51.666;6.880;2023-03-26T03:10:15;12.60;79.80
13412;DHT22;67102;51.666;6.880;2023-03-26T03:12:42;12.60;80.00
13412;DHT22;67102;51.666;6.880;2023-03-26T03:15:09;12.60;80.00
13412;DHT22;67102;51.666;6.880;2023-03-26T03:17:35;12.70;80.40
13412;DHT22;67102;51.666;6.880;2023-03-26T03:20:03;12.70;80.10
13412;DHT22;67102;51.666;6.880;2023-03-26T03:22:29;12.70;80.10
13412;DHT22;67102;51.666;6.880;2023-03-26T03:27:21;12.90;80.00
13412;DHT22;67102;51.666;6.880;2023-03-26T03:29:47;12.90;79.70
13412;DHT22;67102;51.666;6.880;2023-03-26T03:34:40;12.90;79.10
13412;DHT22;67102;51.666;6.880;2023-03-26T03:37:07;12.90;78.90
13412;DHT22;67102;51.666;6.880;2023-03-26T03:39:33;12.90;78.70
13412;DHT22;67102;51.666;6.880;2023-03-26T03:44:25;12.90;78.60
13412;DHT22;67102;51.666;6.880;2023-03-26T03:46:51;12.90;78.40
13412;DHT22;67102;51.666;6.880;2023-03-26T03:51:44;12.80;78.30
13412;DHT22;67102;51.666;6.880;2023-03-26T03:54:11;12.80;78.40
13412;DHT22;67102;51.666;6.880;2023-03-26T03:56:37;12.90;78.70
13412;DHT22;67102;51.666;6.880;2023-03-26T03:59:03;12.90;78.80
13412;DHT22;67102;51.666;6.880;2023-03-26T04:01:29;12.80;78.90
13412;DHT22;67102;51.666;6.880;2023-03-26T04:03:55;12.80;79.00
13412;DHT22;67102;51.666;6.880;2023-03-26T04:08:47;12.90;79.10
13412;DHT22;67102;51.666;6.880;2023-03-26T04:11:15;12.80;79.10
13412;DHT22;67102;51.666;6.880;2023-03-26T04:13:42;12.90;79.10
13412;DHT22;67102;51.666;6.880;2023-03-26T04:16:08;12.90;79.10
13412;DHT22;67102;51.666;6.880;2023-03-26T04:18:35;13.00;79.10
13412;DHT22;67102;51.666;6.880;2023-03-26T04:21:01;13.00;79.10
13412;DHT22;67102;51.666;6.880;2023-03-26T04:25:54;12.90;79.00
13412;DHT22;67102;51.666;6.880;2023-03-26T04:28:27;13.00;79.00
13412;DHT22;67102;51.666;6.880;2023-03-26T04:30:56;13.00;79.00
13412;DHT22;67102;51.666;6.880;2023-03-26T04:33:23;13.00;79.00
13412;DHT22;67102;51.666;6.880;2023-03-26T04:35:49;13.10;78.90
13412;DHT22;67102;51.666;6.880;2023-03-26T04:38:16;13.00;78.90
13412;DHT22;67102;51.666;6.880;2023-03-26T04:40:43;13.10;79.00
13412;DHT22;67102;51.666;6.880;2023-03-26T04:43:11;13.10;78.90
13412;DHT22;67102;51.666;6.880;2023-03-26T04:45:40;13.10;78.90
13412;DHT22;67102;51.666;6.880;2023-03-26T04:48:07;13.20;78.90
13412;DHT22;67102;51.666;6.880;2023-03-26T04:50:33;13.20;78.90
13412;DHT22;67102;51.666;6.880;2023-03-26T04:55:30;13.20;78.70
13412;DHT22;67102;51.666;6.880;2023-03-26T04:57:58;13.30;78.70
13412;DHT22;67102;51.666;6.880;2023-03-26T05:00:24;13.30;78.50
13412;DHT22;67102;51.666;6.880;2023-03-26T05:02:52;13.30;78.40
13412;DHT22;67102;51.666;6.880;2023-03-26T05:07:44;13.40;78.60
13412;DHT22;67102;51.666;6.880;2023-03-26T05:10:12;13.30;78.50
13412;DHT22;67102;51.666;6.880;2023-03-26T05:12:40;13.30;78.60
13412;DHT22;67102;51.666;6.880;2023-03-26T05:15:07;13.30;78.60
13412;DHT22;67102;51.666;6.880;2023-03-26T05:20:01;13.40;78.50
13412;DHT22;67102;51.666;6.880;2023-03-26T05:22:27;13.40;78.40
13412;DHT22;67102;51.666;6.880;2023-03-26T05:32:12;13.40;77.90
13412;DHT22;67102;51.666;6.880;2023-03-26T05:34:38;13.40;77.80
13412;DHT22;67102;51.666;6.880;2023-03-26T05:37:06;13.40;77.80
13412;DHT22;67102;51.666;6.880;2023-03-26T05:39:32;13.40;77.80
13412;DHT22;67102;51.666;6.880;2023-03-26T05:44:24;13.40;78.10
13412;DHT22;67102;51.666;6.880;2023-03-26T05:54:10;13.30;77.90
13412;DHT22;67102;51.666;6.880;2023-03-26T05:56:36;13.30;78.00
13412;DHT22;67102;51.666;6.880;2023-03-26T05:59:02;13.20;78.10
13412;DHT22;67102;51.666;6.880;2023-03-26T06:01:28;13.20;78.20
13412;DHT22;67102;51.666;6.880;2023-03-26T06:03:54;13.20;78.20
13412;DHT22;67102;51.666;6.880;2023-03-26T06:06:20;13.20;78.20
13412;DHT22;67102;51.666;6.880;2023-03-26T06:08:47;13.20;78.30
13412;DHT22;67102;51.666;6.880;2023-03-26T06:11:16;13.20;78.30
13412;DHT22;67102;51.666;6.880;2023-03-26T06:13:44;13.20;78.30
13412;DHT22;67102;51.666;6.880;2023-03-26T06:16:11;13.30;78.40
13412;DHT22;67102;51.666;6.880;2023-03-26T06:21:05;13.20;78.50
13412;DHT22;67102;51.666;6.880;2023-03-26T06:23:32;13.20;78.60
13412;DHT22;67102;51.666;6.880;2023-03-26T06:25:58;13.30;78.60
13412;DHT22;67102;51.666;6.880;2023-03-26T06:28:25;13.20;78.60
13412;DHT22;67102;51.666;6.880;2023-03-26T06:30:51;13.20;78.70
13412;DHT22;67102;51.666;6.880;2023-03-26T06:33:17;13.20;79.10
13412;DHT22;67102;51.666;6.880;2023-03-26T06:35:44;13.20;79.30
13412;DHT22;67102;51.666;6.880;2023-03-26T06:38:11;13.20;79.30
13412;DHT22;67102;51.666;6.880;2023-03-26T06:40:37;13.20;79.50
13412;DHT22;67102;51.666;6.880;2023-03-26T06:45:31;13.20;79.60
13412;DHT22;67102;51.666;6.880;2023-03-26T06:50:23;13.10;79.60
13412;DHT22;67102;51.666;6.880;2023-03-26T06:52:52;13.10;79.70
13412;DHT22;67102;51.666;6.880;2023-03-26T06:55:18;13.10;79.90
13412;DHT22;67102;51.666;6.880;2023-03-26T06:57:47;13.10;80.00
13412;DHT22;67102;51.666;6.880;2023-03-26T07:00:14;13.10;79.80
13412;DHT22;67102;51.666;6.880;2023-03-26T07:02:42;13.20;80.00
13412;DHT22;67102;51.666;6.880;2023-03-26T07:05:08;13.20;80.20
13412;DHT22;67102;51.666;6.880;2023-03-26T07:10:01;13.20;80.40
13412;DHT22;67102;51.666;6.880;2023-03-26T07:12:27;13.20;80.50
13412;DHT22;67102;51.666;6.880;2023-03-26T07:17:19;13.20;80.50
13412;DHT22;67102;51.666;6.880;2023-03-26T07:19:46;13.20;80.60
13412;DHT22;67102;51.666;6.880;2023-03-26T07:22:14;13.20;80.70
13412;DHT22;67102;51.666;6.880;2023-03-26T07:24:44;13.30;80.90
13412;DHT22;67102;51.666;6.880;2023-03-26T07:27:20;13.30;80.90
13412;DHT22;67102;51.666;6.880;2023-03-26T07:30:01;13.30;80.90
13412;DHT22;67102;51.666;6.880;2023-03-26T07:32:36;13.30;81.00
13412;DHT22;67102;51.666;6.880;2023-03-26T07:35:12;13.40;81.00
13412;DHT22;67102;51.666;6.880;2023-03-26T07:37:49;13.50;81.00
13412;DHT22;67102;51.666;6.880;2023-03-26T07:40:39;13.50;81.10
13412;DHT22;67102;51.666;6.880;2023-03-26T07:43:20;13.60;81.20
13412;DHT22;67102;51.666;6.880;2023-03-26T07:45:53;13.50;81.30
13412;DHT22;67102;51.666;6.880;2023-03-26T07:48:21;13.50;81.30
13412;DHT22;67102;51.666;6.880;2023-03-26T07:50:50;13.60;81.30
13412;DHT22;67102;51.666;6.880;2023-03-26T07:53:17;13.60;81.40
13412;DHT22;67102;51.666;6.880;2023-03-26T07:55:49;13.60;81.50
13412;DHT22;67102;51.666;6.880;2023-03-26T07:58:36;13.60;81.40
13412;DHT22;67102;51.666;6.880;2023-03-26T08:01:13;13.70;81.30
13412;DHT22;67102;51.666;6.880;2023-03-26T08:03:57;13.60;81.40
13412;DHT22;67102;51.666;6.880;2023-03-26T08:06:33;13.70;81.60
13412;DHT22;67102;51.666;6.880;2023-03-26T08:09:08;13.70;81.70
13412;DHT22;67102;51.666;6.880;2023-03-26T08:11:47;13.80;81.90
13412;DHT22;67102;51.666;6.880;2023-03-26T08:14:24;13.80;81.80
13412;DHT22;67102;51.666;6.880;2023-03-26T08:17:00;13.90;81.80
13412;DHT22;67102;51.666;6.880;2023-03-26T08:19:47;13.70;81.90
13412;DHT22;67102;51.666;6.880;2023-03-26T08:22:22;13.90;82.40
13412;DHT22;67102;51.666;6.880;2023-03-26T08:25:05;13.90;82.30
13412;DHT22;67102;51.666;6.880;2023-03-26T08:27:46;13.90;82.70
13412;DHT22;67102;51.666;6.880;2023-03-26T08:30:21;13.90;82.60
13412;DHT22;67102;51.666;6.880;2023-03-26T08:32:52;13.90;83.20
13412;DHT22;67102;51.666;6.880;2023-03-26T08:37:47;13.90;83.90
13412;DHT22;67102;51.666;6.880;2023-03-26T08:40:20;13.90;84.30
13412;DHT22;67102;51.666;6.880;2023-03-26T08:43:42;13.90;84.60
13412;DHT22;67102;51.666;6.880;2023-03-26T08:50:48;13.80;84.80
13412;DHT22;67102;51.666;6.880;2023-03-26T08:56:49;13.80;85.30
13412;DHT22;67102;51.666;6.880;2023-03-26T08:59:50;13.80;85.20
13412;DHT22;67102;51.666;6.880;2023-03-26T09:06:31;13.80;85.90
13412;DHT22;67102;51.666;6.880;2023-03-26T09:13:08;13.80;86.70
13412;DHT22;67102;51.666;6.880;2023-03-26T09:16:06;13.90;87.70
13412;DHT22;67102;51.666;6.880;2023-03-26T09:22:15;13.80;87.60
13412;DHT22;67102;51.666;6.880;2023-03-26T09:25:28;13.80;87.80
13412;DHT22;67102;51.666;6.880;2023-03-26T09:28:26;13.80;87.30
13412;DHT22;67102;51.666;6.880;2023-03-26T09:31:40;13.80;88.10
13412;DHT22;67102;51.666;6.880;2023-03-26T09:34:27;13.80;87.60
13412;DHT22;67102;51.666;6.880;2023-03-26T09:36:55;13.80;87.60
13412;DHT22;67102;51.666;6.880;2023-03-26T09:39:36;13.80;87.50
13412;DHT22;67102;51.666;6.880;2023-03-26T09:42:15;13.80;87.50
13412;DHT22;67102;51.666;6.880;2023-03-26T09:48:11;13.80;87.20
13412;DHT22;67102;51.666;6.880;2023-03-26T09:50:56;13.80;86.90
13412;DHT22;67102;51.666;6.880;2023-03-26T09:56:41;13.70;86.70
13412;DHT22;67102;51.666;6.880;2023-03-26T09:59:36;13.90;87.00
13412;DHT22;67102;51.666;6.880;2023-03-26T10:02:39;13.70;86.90
13412;DHT22;67102;51.666;6.880;2023-03-26T10:05:37;13.70;87.20
13412;DHT22;67102;51.666;6.880;2023-03-26T10:08:26;13.70;87.50
13412;DHT22;67102;51.666;6.880;2023-03-26T10:11:03;13.70;87.50
13412;DHT22;67102;51.666;6.880;2023-03-26T10:13:41;13.70;87.40
13412;DHT22;67102;51.666;6.880;2023-03-26T10:16:22;13.70;87.70
13412;DHT22;67102;51.666;6.880;2023-03-26T10:19:02;13.70;87.70
13412;DHT22;67102;51.666;6.880;2023-03-26T10:21:45;13.70;88.40
13412;DHT22;67102;51.666;6.880;2023-03-26T10:24:26;13.70;88.40
13412;DHT22;67102;51.666;6.880;2023-03-26T10:27:15;13.70;89.80
13412;DHT22;67102;51.666;6.880;2023-03-26T10:30:13;13.70;89.60
13412;DHT22;67102;51.666;6.880;2023-03-26T10:32:52;13.70;90.10
13412;DHT22;67102;51.666;6.880;2023-03-26T10:35:35;13.70;90.20
13412;DHT22;67102;51.666;6.880;2023-03-26T10:38:15;13.60;90.20
13412;DHT22;67102;51.666;6.880;2023-03-26T10:40:50;13.70;90.20
13412;DHT22;67102;51.666;6.880;2023-03-26T10:43:42;13.60;90.40
13412;DHT22;67102;51.666;6.880;2023-03-26T10:46:24;13.70;90.70
13412;DHT22;67102;51.666;6.880;2023-03-26T10:49:34;13.50;90.90
13412;DHT22;67102;51.666;6.880;2023-03-26T10:52:11;13.50;91.50
13412;DHT22;67102;51.666;6.880;2023-03-26T10:54:46;13.40;91.80
13412;DHT22;67102;51.666;6.880;2023-03-26T10:57:25;13.40;92.40
13412;DHT22;67102;51.666;6.880;2023-03-26T11:00:04;13.30;92.80
13412;DHT22;67102;51.666;6.880;2023-03-26T11:02:44;13.40;93.20
13412;DHT22;67102;51.666;6.880;2023-03-26T11:05:26;13.30;93.00
13412;DHT22;67102;51.666;6.880;2023-03-26T11:08:09;13.40;93.40
13412;DHT22;67102;51.666;6.880;2023-03-26T11:10:46;13.30;93.30
13412;DHT22;67102;51.666;6.880;2023-03-26T11:13:24;13.30;93.90
13412;DHT22;67102;51.666;6.880;2023-03-26T11:16:02;13.30;94.20
13412;DHT22;67102;51.666;6.880;2023-03-26T11:18:34;13.30;94.40
13412;DHT22;67102;51.666;6.880;2023-03-26T11:21:09;13.40;94.50
13412;DHT22;67102;51.666;6.880;2023-03-26T11:23:41;13.40;94.60
13412;DHT22;67102;51.666;6.880;2023-03-26T11:26:15;13.40;94.70
13412;DHT22;67102;51.666;6.880;2023-03-26T11:28:55;13.50;94.90
13412;DHT22;67102;51.666;6.880;2023-03-26T11:31:35;13.50;94.80
13412;DHT22;67102;51.666;6.880;2023-03-26T11:34:10;13.50;94.70
13412;DHT22;67102;51.666;6.880;2023-03-26T11:36:41;13.50;94.60
13412;DHT22;67102;51.666;6.880;2023-03-26T11:39:12;13.60;94.70
13412;DHT22;67102;51.666;6.880;2023-03-26T11:41:40;13.60;94.70
13412;DHT22;67102;51.666;6.880;2023-03-26T11:44:14;13.60;94.90
13412;DHT22;67102;51.666;6.880;2023-03-26T11:46:45;13.60;95.00
13412;DHT22;67102;51.666;6.880;2023-03-26T11:49:17;13.70;95.10
13412;DHT22;67102;51.666;6.880;2023-03-26T11:51:45;13.70;95.30
13412;DHT22;67102;51.666;6.880;2023-03-26T11:54:13;13.80;95.50
13412;DHT22;67102;51.666;6.880;2023-03-26T11:56:43;13.90;95.50
13412;DHT22;67102;51.666;6.880;2023-03-26T11:59:13;13.70;95.30
13412;DHT22;67102;51.666;6.880;2023-03-26T12:01:45;13.90;95.20
13412;DHT22;67102;51.666;6.880;2023-03-26T12:04:14;14.50;95.40
13412;DHT22;67102;51.666;6.880;2023-03-26T12:06:51;13.80;94.80
13412;DHT22;67102;51.666;6.880;2023-03-26T12:09:20;13.80;94.60
13412;DHT22;67102;51.666;6.880;2023-03-26T12:11:47;13.90;94.60
13412;DHT22;67102;51.666;6.880;2023-03-26T12:14:16;13.70;94.50
13412;DHT22;67102;51.666;6.880;2023-03-26T12:16:58;13.80;94.70
13412;DHT22;67102;51.666;6.880;2023-03-26T12:19:25;13.80;94.60
13412;DHT22;67102;51.666;6.880;2023-03-26T12:21:52;13.80;94.30
13412;DHT22;67102;51.666;6.880;2023-03-26T12:24:28;13.80;94.40
13412;DHT22;67102;51.666;6.880;2023-03-26T12:26:59;13.70;94.60
13412;DHT22;67102;51.666;6.880;2023-03-26T12:29:28;13.70;94.80
13412;DHT22;67102;51.666;6.880;2023-03-26T12:31:56;13.80;95.00
13412;DHT22;67102;51.666;6.880;2023-03-26T12:34:28;13.80;95.00
13412;DHT22;67102;51.666;6.880;2023-03-26T12:36:56;13.70;94.20
13412;DHT22;67102;51.666;6.880;2023-03-26T12:39:35;13.70;94.20
13412;DHT22;67102;51.666;6.880;2023-03-26T12:42:03;13.80;94.40
13412;DHT22;67102;51.666;6.880;2023-03-26T12:44:33;13.80;94.30
13412;DHT22;67102;51.666;6.880;2023-03-26T12:47:14;13.80;93.40
13412;DHT22;67102;51.666;6.880;2023-03-26T12:49:44;13.70;93.30
13412;DHT22;67102;51.666;6.880;2023-03-26T12:52:27;13.70;93.70
13412;DHT22;67102;51.666;6.880;2023-03-26T12:55:16;13.70;94.40
13412;DHT22;67102;51.666;6.880;2023-03-26T12:57:53;13.70;94.10
13412;DHT22;67102;51.666;6.880;2023-03-26T13:00:30;13.60;92.90
13412;DHT22;67102;51.666;6.880;2023-03-26T13:03:18;13.60;92.50
13412;DHT22;67102;51.666;6.880;2023-03-26T13:06:07;13.60;93.10
13412;DHT22;67102;51.666;6.880;2023-03-26T13:12:01;13.50;93.20
13412;DHT22;67102;51.666;6.880;2023-03-26T13:14:46;13.50;93.20
13412;DHT22;67102;51.666;6.880;2023-03-26T13:17:24;13.50;93.40
13412;DHT22;67102;51.666;6.880;2023-03-26T13:19:58;13.40;93.70
13412;DHT22;67102;51.666;6.880;2023-03-26T13:22:32;13.60;93.60
13412;DHT22;67102;51.666;6.880;2023-03-26T13:25:17;13.60;93.40
13412;DHT22;67102;51.666;6.880;2023-03-26T13:27:54;13.60;93.80
13412;DHT22;67102;51.666;6.880;2023-03-26T13:30:32;13.70;93.90
13412;DHT22;67102;51.666;6.880;2023-03-26T13:33:24;13.80;94.10
13412;DHT22;67102;51.666;6.880;2023-03-26T13:35:58;13.80;93.80
13412;DHT22;67102;51.666;6.880;2023-03-26T13:38:33;13.90;93.80
13412;DHT22;67102;51.666;6.880;2023-03-26T13:41:10;14.00;93.80
13412;DHT22;67102;51.666;6.880;2023-03-26T13:43:55;14.10;92.90
13412;DHT22;67102;51.666;6.880;2023-03-26T13:46:30;14.10;93.00
13412;DHT22;67102;51.666;6.880;2023-03-26T13:49:00;14.20;92.80
13412;DHT22;67102;51.666;6.880;2023-03-26T13:51:30;14.20;91.40
13412;DHT22;67102;51.666;6.880;2023-03-26T13:54:04;14.20;91.20
13412;DHT22;67102;51.666;6.880;2023-03-26T13:56:39;14.10;91.20
13412;DHT22;67102;51.666;6.880;2023-03-26T13:59:13;14.10;91.10
13412;DHT22;67102;51.666;6.880;2023-03-26T14:01:46;14.10;91.00
13412;DHT22;67102;51.666;6.880;2023-03-26T14:04:19;14.10;90.40
13412;DHT22;67102;51.666;6.880;2023-03-26T14:06:51;14.00;90.70
13412;DHT22;67102;51.666;6.880;2023-03-26T14:09:24;14.00;90.80
13412;DHT22;67102;51.666;6.880;2023-03-26T14:14:53;13.80;90.20
13412;DHT22;67102;51.666;6.880;2023-03-26T14:17:25;13.70;90.50
13412;DHT22;67102;51.666;6.880;2023-03-26T14:27:00;13.50;90.40
13412;DHT22;67102;51.666;6.880;2023-03-26T14:29:53;13.50;90.60
13412;DHT22;67102;51.666;6.880;2023-03-26T14:32:32;13.40;90.60
13412;DHT22;67102;51.666;6.880;2023-03-26T14:35:15;13.30;91.00
13412;DHT22;67102;51.666;6.880;2023-03-26T14:37:55;13.30;91.20
13412;DHT22;67102;51.666;6.880;2023-03-26T14:40:47;13.30;90.60
13412;DHT22;67102;51.666;6.880;2023-03-26T14:43:42;13.10;90.50
13412;DHT22;67102;51.666;6.880;2023-03-26T14:46:43;13.10;90.40
13412;DHT22;67102;51.666;6.880;2023-03-26T14:49:40;13.00;90.70
13412;DHT22;67102;51.666;6.880;2023-03-26T14:52:19;12.90;90.70
13412;DHT22;67102;51.666;6.880;2023-03-26T14:54:51;12.90;90.90
13412;DHT22;67102;51.666;6.880;2023-03-26T14:57:41;12.80;90.90
13412;DHT22;67102;51.666;6.880;2023-03-26T15:00:41;12.70;91.20
13412;DHT22;67102;51.666;6.880;2023-03-26T15:07:22;12.60;91.30
13412;DHT22;67102;51.666;6.880;2023-03-26T15:10:22;12.80;91.40
13412;DHT22;67102;51.666;6.880;2023-03-26T15:13:11;12.60;91.40
13412;DHT22;67102;51.666;6.880;2023-03-26T15:16:10;12.50;91.40
13412;DHT22;67102;51.666;6.880;2023-03-26T15:22:13;12.40;91.40
13412;DHT22;67102;51.666;6.880;2023-03-26T15:28:34;12.30;91.20
13412;DHT22;67102;51.666;6.880;2023-03-26T15:34:53;12.00;90.50
13412;DHT22;67102;51.666;6.880;2023-03-26T15:37:50;12.00;90.90
13412;DHT22;67102;51.666;6.880;2023-03-26T15:44:26;11.70;90.00
13412;DHT22;67102;51.666;6.880;2023-03-26T15:47:00;11.60;90.80
13412;DHT22;67102;51.666;6.880;2023-03-26T15:49:44;11.60;91.20
13412;DHT22;67102;51.666;6.880;2023-03-26T15:52:20;11.70;91.20
13412;DHT22;67102;51.666;6.880;2023-03-26T15:54:58;11.70;90.80
13412;DHT22;67102;51.666;6.880;2023-03-26T15:57:30;11.70;90.80
13412;DHT22;67102;51.666;6.880;2023-03-26T16:00:05;11.70;90.90
13412;DHT22;67102;51.666;6.880;2023-03-26T16:02:43;11.80;90.70
13412;DHT22;67102;51.666;6.880;2023-03-26T16:05:34;11.80;90.90
13412;DHT22;67102;51.666;6.880;2023-03-26T16:08:14;11.80;90.70
13412;DHT22;67102;51.666;6.880;2023-03-26T16:10:50;11.80;90.60
13412;DHT22;67102;51.666;6.880;2023-03-26T16:13:26;14.30;91.30
13412;DHT22;67102;51.666;6.880;2023-03-26T16:16:16;11.90;90.60
13412;DHT22;67102;51.666;6.880;2023-03-26T16:18:45;11.90;90.70
13412;DHT22;67102;51.666;6.880;2023-03-26T16:21:44;11.90;90.80
13412;DHT22;67102;51.666;6.880;2023-03-26T16:24:25;12.10;90.90
13412;DHT22;67102;51.666;6.880;2023-03-26T16:27:08;12.00;90.50
13412;DHT22;67102;51.666;6.880;2023-03-26T16:30:25;12.10;90.70
13412;DHT22;67102;51.666;6.880;2023-03-26T16:32:53;12.10;90.60
13412;DHT22;67102;51.666;6.880;2023-03-26T16:35:38;12.10;90.20
13412;DHT22;67102;51.666;6.880;2023-03-26T16:38:26;12.20;90.20
13412;DHT22;67102;51.666;6.880;2023-03-26T16:41:01;12.20;90.10
13412;DHT22;67102;51.666;6.880;2023-03-26T16:43:50;12.20;89.90
13412;DHT22;67102;51.666;6.880;2023-03-26T16:46:29;12.80;89.00
13412;DHT22;67102;51.666;6.880;2023-03-26T16:49:02;12.20;87.10
13412;DHT22;67102;51.666;6.880;2023-03-26T16:51:49;12.20;85.70
13412;DHT22;67102;51.666;6.880;2023-03-26T16:54:24;12.10;84.80
13412;DHT22;67102;51.666;6.880;2023-03-26T16:56:57;12.10;84.90
13412;DHT22;67102;51.666;6.880;2023-03-26T16:59:41;12.10;84.80
13412;DHT22;67102;51.666;6.880;2023-03-26T17:02:20;12.10;85.00
13412;DHT22;67102;51.666;6.880;2023-03-26T17:04:52;12.00;83.20
13412;DHT22;67102;51.666;6.880;2023-03-26T17:07:28;12.00;82.50
13412;DHT22;67102;51.666;6.880;2023-03-26T17:10:04;11.90;83.20
13412;DHT22;67102;51.666;6.880;2023-03-26T17:12:37;11.90;82.20
13412;DHT22;67102;51.666;6.880;2023-03-26T17:15:16;11.70;82.00
13412;DHT22;67102;51.666;6.880;2023-03-26T17:18:03;11.80;81.80
13412;DHT22;67102;51.666;6.880;2023-03-26T17:20:44;11.80;81.60
13412;DHT22;67102;51.666;6.880;2023-03-26T17:23:29;11.80;82.00
13412;DHT22;67102;51.666;6.880;2023-03-26T17:26:04;11.80;82.40
13412;DHT22;67102;51.666;6.880;2023-03-26T17:28:49;11.70;81.70
13412;DHT22;67102;51.666;6.880;2023-03-26T17:31:34;11.80;81.40
13412;DHT22;67102;51.666;6.880;2023-03-26T17:34:39;7.90;79.20
13412;DHT22;67102;51.666;6.880;2023-03-26T17:37:09;11.70;80.80
13412;DHT22;67102;51.666;6.880;2023-03-26T17:43:09;11.60;79.50
13412;DHT22;67102;51.666;6.880;2023-03-26T17:45:38;11.50;78.40
13412;DHT22;67102;51.666;6.880;2023-03-26T17:48:09;11.40;78.10
13412;DHT22;67102;51.666;6.880;2023-03-26T17:50:44;11.40;79.00
13412;DHT22;67102;51.666;6.880;2023-03-26T17:53:18;11.30;78.30
13412;DHT22;67102;51.666;6.880;2023-03-26T17:55:45;11.30;78.20
13412;DHT22;67102;51.666;6.880;2023-03-26T17:58:32;11.20;77.60
13412;DHT22;67102;51.666;6.880;2023-03-26T18:01:06;11.20;77.50
13412;DHT22;67102;51.666;6.880;2023-03-26T18:03:41;11.30;78.50
13412;DHT22;67102;51.666;6.880;2023-03-26T18:06:15;11.30;78.90
13412;DHT22;67102;51.666;6.880;2023-03-26T18:09:01;11.20;79.90
13412;DHT22;67102;51.666;6.880;2023-03-26T18:12:02;11.30;80.10
13412;DHT22;67102;51.666;6.880;2023-03-26T18:14:51;11.30;80.40
13412;DHT22;67102;51.666;6.880;2023-03-26T18:17:39;11.30;79.60
13412;DHT22;67102;51.666;6.880;2023-03-26T18:20:19;11.30;79.60
13412;DHT22;67102;51.666;6.880;2023-03-26T18:22:47;11.40;79.30
13412;DHT22;67102;51.666;6.880;2023-03-26T18:25:21;11.30;78.40
13412;DHT22;67102;51.666;6.880;2023-03-26T18:27:49;11.40;79.20
13412;DHT22;67102;51.666;6.880;2023-03-26T18:30:18;11.40;79.20
13412;DHT22;67102;51.666;6.880;2023-03-26T18:32:51;11.50;79.10
13412;DHT22;67102;51.666;6.880;2023-03-26T18:35:20;11.40;77.80
13412;DHT22;67102;51.666;6.880;2023-03-26T18:37:47;11.20;76.20
13412;DHT22;67102;51.666;6.880;2023-03-26T18:40:17;11.50;77.40